createdAt,value
2022-08-17T00:01:51.532Z,4.80
2022-08-17T00:04:20.299Z,4.87
2022-08-17T00:06:49.250Z,5.03
2022-08-17T00:09:18.932Z,5.33
2022-08-17T00:12:34.957Z,5.03
2022-08-17T00:14:36.999Z,4.87
2022-08-17T00:17:07.038Z,5.00
2022-08-17T00:19:34.011Z,5.30
2022-08-17T00:22:32.410Z,5.00
2022-08-17T00:24:50.138Z,5.03
2022-08-17T00:27:17.896Z,5.20
2022-08-17T00:29:45.858Z,4.97
2022-08-17T00:33:11.612Z,5.77
2022-08-17T00:35:06.805Z,5.47
2022-08-17T00:37:33.775Z,5.13
2022-08-17T00:40:00.600Z,5.37
2022-08-17T00:42:30.946Z,5.30
2022-08-17T00:44:58.703Z,5.30
2022-08-17T00:47:26.039Z,5.97
2022-08-17T00:49:53.104Z,5.27
2022-08-17T00:52:28.543Z,6.07
2022-08-17T00:54:56.554Z,7.00
2022-08-17T00:57:44.160Z,5.90
2022-08-17T01:00:27.447Z,5.90
2022-08-17T01:03:03.102Z,5.50
2022-08-17T01:05:33.354Z,5.60
2022-08-17T01:08:02.520Z,5.53
2022-08-17T01:10:59.917Z,6.00
2022-08-17T01:13:39.808Z,5.77
2022-08-17T01:16:18.864Z,6.10
2022-08-17T01:18:50.494Z,5.17
2022-08-17T01:21:49.157Z,5.00
2022-08-17T01:24:17.693Z,5.40
2022-08-17T01:26:45.972Z,5.10
2022-08-17T01:29:13.669Z,6.23
2022-08-17T01:31:52.200Z,6.03
2022-08-17T01:34:21.035Z,5.30
2022-08-17T01:36:50.319Z,7.20
2022-08-17T01:39:37.712Z,5.60
2022-08-17T01:42:30.950Z,6.40
2022-08-17T01:45:05.505Z,6.30
2022-08-17T01:47:32.885Z,5.63
2022-08-17T01:50:10.533Z,6.30
2022-08-17T01:52:37.637Z,6.10
2022-08-17T01:55:07.018Z,6.13
2022-08-17T01:57:34.390Z,5.90
2022-08-17T02:00:01.299Z,5.67
2022-08-17T02:02:30.339Z,6.20
2022-08-17T02:04:58.808Z,6.43
2022-08-17T02:07:27.069Z,5.67
2022-08-17T02:09:54.492Z,5.93
2022-08-17T02:12:37.913Z,5.70
2022-08-17T02:15:09.493Z,6.40
2022-08-17T02:17:36.406Z,5.87
2022-08-17T02:20:05.174Z,5.80
2022-08-17T02:22:31.970Z,6.97
2022-08-17T02:25:02.307Z,5.57
2022-08-17T02:27:29.918Z,5.67
2022-08-17T02:29:57.501Z,5.80
2022-08-17T02:32:28.123Z,5.87
2022-08-17T02:34:58.135Z,6.63
2022-08-17T02:37:27.871Z,6.27
2022-08-17T02:39:57.064Z,6.63
2022-08-17T02:42:38.183Z,6.20
2022-08-17T02:45:11.304Z,6.40
2022-08-17T02:47:38.945Z,6.33
2022-08-17T02:50:07.723Z,5.87
2022-08-17T02:52:43.441Z,7.00
2022-08-17T02:55:34.453Z,5.47
2022-08-17T02:58:03.483Z,6.43
2022-08-17T03:00:40.965Z,6.30
2022-08-17T03:03:10.812Z,6.50
2022-08-17T03:05:39.464Z,6.43
2022-08-17T03:08:07.807Z,5.80
2022-08-17T03:10:40.010Z,6.67
2022-08-17T03:13:06.883Z,6.20
2022-08-17T03:15:34.976Z,6.83
2022-08-17T03:18:03.502Z,6.60
2022-08-17T03:20:33.195Z,6.13
2022-08-17T03:23:02.826Z,7.00
2022-08-17T03:25:35.394Z,6.70
2022-08-17T03:28:04.282Z,5.90
2022-08-17T03:30:31.749Z,6.07
2022-08-17T03:33:01.681Z,6.50
2022-08-17T03:35:32.412Z,6.20
2022-08-17T03:38:01.302Z,5.60
2022-08-17T03:40:55.058Z,6.20
2022-08-17T03:43:19.028Z,6.63
2022-08-17T03:46:04.382Z,5.90
2022-08-17T03:48:51.284Z,6.80
2022-08-17T03:51:41.753Z,5.80
2022-08-17T03:54:29.170Z,6.20
2022-08-17T03:57:09.475Z,6.30
2022-08-17T03:59:37.714Z,6.13
2022-08-17T04:02:21.354Z,6.57
2022-08-17T04:04:52.335Z,7.17
2022-08-17T04:07:22.666Z,6.77
2022-08-17T04:09:49.826Z,6.37
2022-08-17T04:12:23.257Z,6.60
2022-08-17T04:14:52.640Z,6.00
2022-08-17T04:17:27.685Z,6.03
2022-08-17T04:19:56.242Z,6.60
2022-08-17T04:22:30.441Z,6.23
2022-08-17T04:25:15.936Z,6.43
2022-08-17T04:27:42.713Z,6.97
2022-08-17T04:30:10.511Z,7.10
2022-08-17T04:33:08.545Z,7.03
2022-08-17T04:35:47.951Z,6.83
2022-08-17T04:38:26.207Z,5.93
2022-08-17T04:41:12.117Z,5.83
2022-08-17T04:43:41.425Z,7.10
2022-08-17T04:46:19.361Z,6.73
2022-08-17T04:48:53.315Z,6.87
2022-08-17T04:51:56.240Z,6.70
2022-08-17T04:54:27.581Z,7.13
2022-08-17T04:56:54.350Z,5.87
2022-08-17T04:59:22.523Z,6.60
2022-08-17T05:01:51.942Z,7.00
2022-08-17T05:04:34.559Z,6.93
2022-08-17T05:07:03.124Z,7.10
2022-08-17T05:09:29.914Z,7.17
2022-08-17T05:12:02.271Z,7.90
2022-08-17T05:14:32.930Z,7.60
2022-08-17T05:17:01.284Z,7.57
2022-08-17T05:19:28.991Z,7.30
2022-08-17T05:21:55.805Z,7.77
2022-08-17T05:24:38.386Z,7.73
2022-08-17T05:27:06.540Z,7.77
2022-08-17T05:29:35.591Z,7.60
2022-08-17T05:32:37.897Z,7.40
2022-08-17T05:35:01.171Z,7.33
2022-08-17T05:37:28.333Z,6.70
2022-08-17T05:39:55.298Z,7.30
2022-08-17T05:42:22.575Z,6.20
2022-08-17T05:44:49.419Z,6.63
2022-08-17T05:47:18.230Z,6.40
2022-08-17T05:49:45.301Z,6.40
2022-08-17T05:52:34.738Z,6.73
2022-08-17T05:55:45.319Z,6.93
2022-08-17T05:58:27.219Z,7.00
2022-08-17T06:01:44.114Z,7.57
2022-08-17T06:05:10.696Z,6.70
2022-08-17T06:07:57.322Z,6.97
2022-08-17T06:11:03.367Z,6.40
2022-08-17T06:13:45.005Z,7.00
2022-08-17T06:16:33.794Z,6.10
2022-08-17T06:19:20.070Z,5.97
2022-08-17T06:21:52.678Z,6.63
2022-08-17T06:24:34.310Z,5.30
2022-08-17T06:27:25.159Z,6.27
2022-08-17T06:30:11.469Z,6.00
2022-08-17T06:32:43.605Z,5.80
2022-08-17T06:35:30.042Z,6.03
2022-08-17T06:38:37.630Z,5.30
2022-08-17T06:41:28.882Z,6.10
2022-08-17T06:44:43.615Z,5.13
2022-08-17T06:47:48.921Z,5.73
2022-08-17T06:50:35.881Z,6.00
2022-08-17T06:53:24.441Z,5.73
2022-08-17T06:56:09.481Z,5.50
2022-08-17T06:58:40.423Z,5.60
2022-08-17T07:01:19.716Z,5.73
2022-08-17T07:03:57.490Z,6.10
2022-08-17T07:06:40.557Z,5.47
2022-08-17T07:09:23.475Z,4.90
2022-08-17T07:12:15.850Z,4.43
2022-08-17T07:15:10.987Z,4.73
2022-08-17T07:17:47.528Z,4.83
2022-08-17T07:20:23.288Z,4.67
2022-08-17T07:23:03.582Z,5.40
2022-08-17T07:25:31.960Z,4.93
2022-08-17T07:28:07.125Z,4.97
2022-08-17T07:30:46.954Z,4.53
2022-08-17T07:33:22.575Z,5.10
2022-08-17T07:35:50.231Z,4.43
2022-08-17T07:38:28.641Z,5.20
2022-08-17T07:41:01.882Z,5.13
2022-08-17T07:43:40.964Z,5.30
2022-08-17T07:46:42.656Z,5.40
2022-08-17T07:49:09.367Z,5.47
2022-08-17T07:51:59.962Z,5.80
2022-08-17T07:54:42.761Z,4.47
2022-08-17T07:57:15.180Z,5.00
2022-08-17T08:00:06.264Z,4.97
2022-08-17T08:02:45.395Z,5.00
2022-08-17T08:05:44.284Z,4.60
2022-08-17T08:08:32.712Z,5.27
2022-08-17T08:11:15.380Z,5.70
2022-08-17T08:13:45.654Z,4.70
2022-08-17T08:16:29.295Z,5.00
2022-08-17T08:19:02.012Z,4.70
2022-08-17T08:21:35.436Z,4.40
2022-08-17T08:24:42.388Z,5.27
2022-08-17T08:27:29.085Z,5.07
2022-08-17T08:30:12.826Z,4.87
2022-08-17T08:33:07.527Z,5.00
2022-08-17T08:35:52.943Z,5.37
2022-08-17T08:39:00.766Z,5.03
2022-08-17T08:41:45.683Z,4.80
2022-08-17T08:45:00.782Z,5.00
2022-08-17T08:48:22.705Z,5.33
2022-08-17T08:51:21.428Z,3.83
2022-08-17T08:54:26.693Z,4.80
2022-08-17T08:57:32.697Z,4.90
2022-08-17T09:00:23.723Z,4.80
2022-08-17T09:03:08.988Z,5.00
2022-08-17T09:06:32.475Z,5.10
2022-08-17T09:09:21.531Z,4.97
2022-08-17T09:12:25.288Z,4.93
2022-08-17T09:15:03.322Z,5.30
2022-08-17T09:18:36.416Z,4.90
2022-08-17T09:21:03.462Z,5.00
2022-08-17T09:23:49.434Z,4.17
2022-08-17T09:26:51.294Z,4.80
2022-08-17T09:29:18.418Z,4.40
2022-08-17T09:31:58.606Z,4.90
2022-08-17T09:34:49.692Z,4.50
2022-08-17T09:38:02.259Z,4.70
2022-08-17T09:40:47.479Z,4.87
2022-08-17T09:43:43.817Z,4.80
2022-08-17T09:46:31.818Z,4.23
2022-08-17T09:49:37.530Z,4.13
2022-08-17T09:52:28.410Z,4.67
2022-08-17T09:54:59.255Z,5.07
2022-08-17T09:57:43.157Z,4.03
2022-08-17T10:00:27.327Z,4.53
2022-08-17T10:03:42.993Z,4.13
2022-08-17T10:06:23.086Z,4.30
2022-08-17T10:09:06.434Z,4.07
2022-08-17T10:12:03.158Z,3.60
2022-08-17T10:14:43.778Z,4.93
2022-08-17T10:17:35.555Z,4.67
2022-08-17T10:20:36.838Z,4.40
2022-08-17T10:24:10.690Z,4.87
2022-08-17T10:26:56.590Z,4.40
2022-08-17T10:29:49.864Z,4.43
2022-08-17T10:32:59.120Z,4.30
2022-08-17T10:36:06.308Z,4.63
2022-08-17T10:38:46.892Z,4.53
2022-08-17T10:41:27.191Z,4.33
2022-08-17T10:44:40.129Z,4.13
2022-08-17T10:47:03.768Z,4.77
2022-08-17T10:49:38.982Z,4.30
2022-08-17T10:52:21.919Z,4.10
2022-08-17T10:54:58.233Z,5.10
2022-08-17T10:57:34.315Z,4.37
2022-08-17T11:00:17.455Z,4.50
2022-08-17T11:02:58.338Z,3.70
2022-08-17T11:06:04.046Z,4.50
2022-08-17T11:09:22.463Z,4.00
2022-08-17T11:11:58.587Z,3.93
2022-08-17T11:14:39.840Z,4.03
2022-08-17T11:17:21.276Z,4.40
2022-08-17T11:20:23.369Z,4.33
2022-08-17T11:23:07.389Z,4.17
2022-08-17T11:25:47.158Z,4.27
2022-08-17T11:28:34.521Z,4.37
2022-08-17T11:31:39.274Z,4.67
2022-08-17T11:34:31.268Z,4.40
2022-08-17T11:37:36.203Z,4.63
2022-08-17T11:40:49.471Z,4.57
2022-08-17T11:44:15.302Z,4.50
2022-08-17T11:47:22.792Z,4.37
2022-08-17T11:50:38.850Z,4.00
2022-08-17T11:53:06.442Z,4.37
2022-08-17T11:55:59.082Z,4.40
2022-08-17T11:58:37.315Z,4.60
2022-08-17T12:01:57.058Z,4.67
2022-08-17T12:04:26.125Z,4.17
2022-08-17T12:07:05.183Z,5.67
2022-08-17T12:09:34.438Z,4.67
2022-08-17T12:12:14.205Z,4.80
2022-08-17T12:15:12.891Z,5.80
2022-08-17T12:17:42.695Z,5.00
2022-08-17T12:20:38.468Z,4.27
2022-08-17T12:23:33.764Z,5.00
2022-08-17T12:26:21.016Z,4.90
2022-08-17T12:28:57.420Z,4.50
2022-08-17T12:31:43.135Z,4.67
2022-08-17T12:34:22.795Z,4.93
2022-08-17T12:36:54.310Z,4.30
2022-08-17T12:39:25.048Z,4.63
2022-08-17T12:42:02.391Z,4.23
2022-08-17T12:44:37.049Z,4.43
2022-08-17T12:47:22.178Z,4.70
2022-08-17T12:49:55.112Z,4.40
2022-08-17T12:52:32.741Z,5.20
2022-08-17T12:55:08.165Z,4.97
2022-08-17T12:57:46.106Z,4.50
2022-08-17T13:00:35.483Z,5.30
2022-08-17T13:03:09.418Z,4.70
2022-08-17T13:05:54.918Z,4.23
2022-08-17T13:08:39.314Z,4.00
2022-08-17T13:11:13.719Z,4.40
2022-08-17T13:13:50.673Z,4.17
2022-08-17T13:16:31.866Z,4.63
2022-08-17T13:19:18.750Z,7.23
2022-08-17T13:22:12.633Z,5.30
2022-08-17T13:24:55.554Z,4.87
2022-08-17T13:27:26.477Z,4.83
2022-08-17T13:30:02.182Z,4.90
2022-08-17T13:32:45.680Z,4.73
2022-08-17T13:35:41.048Z,5.07
2022-08-17T13:38:16.870Z,4.70
2022-08-17T13:40:51.807Z,5.20
2022-08-17T13:43:45.423Z,4.60
2022-08-17T13:46:28.390Z,4.67
2022-08-17T13:49:06.711Z,5.07
2022-08-17T13:51:42.147Z,4.90
2022-08-17T13:54:36.686Z,4.90
2022-08-17T13:57:12.434Z,4.53
2022-08-17T13:59:55.293Z,4.47
2022-08-17T14:02:25.834Z,4.67
2022-08-17T14:04:58.373Z,4.60
2022-08-17T14:07:34.669Z,4.70
2022-08-17T14:10:10.126Z,4.27
2022-08-17T14:12:40.808Z,4.10
2022-08-17T14:15:11.258Z,4.67
2022-08-17T14:17:39.280Z,4.40
2022-08-17T14:20:10.685Z,4.60
2022-08-17T14:22:45.942Z,4.53
2022-08-17T14:25:17.673Z,4.50
2022-08-17T14:27:52.709Z,4.80
2022-08-17T14:30:23.806Z,5.07
2022-08-17T14:32:51.843Z,4.40
2022-08-17T14:35:22.325Z,4.20
2022-08-17T14:37:51.104Z,4.20
2022-08-17T14:40:24.275Z,4.77
2022-08-17T14:42:53.872Z,4.30
2022-08-17T14:45:29.862Z,3.97
2022-08-17T14:48:04.348Z,4.40
2022-08-17T14:50:32.026Z,3.83
2022-08-17T14:53:03.779Z,4.13
2022-08-17T14:55:31.097Z,4.30
2022-08-17T14:57:58.250Z,4.50
2022-08-17T15:00:26.689Z,4.27
2022-08-17T15:02:58.314Z,4.00
2022-08-17T15:05:31.429Z,4.27
2022-08-17T15:08:03.262Z,3.97
2022-08-17T15:10:31.735Z,4.17
2022-08-17T15:12:59.275Z,3.97
2022-08-17T15:15:26.594Z,3.83
2022-08-17T15:17:53.622Z,4.40
2022-08-17T15:20:27.491Z,4.33
2022-08-17T15:22:56.080Z,3.70
2022-08-17T15:25:29.049Z,3.73
2022-08-17T15:27:56.301Z,4.70
2022-08-17T15:30:25.573Z,3.97
2022-08-17T15:32:55.102Z,4.47
2022-08-17T15:35:28.989Z,4.20
2022-08-17T15:38:11.833Z,4.50
2022-08-17T15:40:48.317Z,4.53
2022-08-17T15:43:22.000Z,4.13
2022-08-17T15:46:04.991Z,3.80
2022-08-17T15:48:41.294Z,3.93
2022-08-17T15:51:33.360Z,3.97
2022-08-17T15:54:18.703Z,4.07
2022-08-17T15:56:46.501Z,4.33
2022-08-17T15:59:13.348Z,4.10
2022-08-17T16:03:14.820Z,4.17
2022-08-17T16:04:31.046Z,3.90
2022-08-17T16:06:59.929Z,3.93
2022-08-17T16:09:27.912Z,3.73
2022-08-17T16:11:55.584Z,4.07
2022-08-17T16:14:24.495Z,4.03
2022-08-17T16:16:59.034Z,3.97
2022-08-17T16:19:25.808Z,4.30
2022-08-17T16:21:52.603Z,3.93
2022-08-17T16:24:19.472Z,3.63
2022-08-17T16:26:46.339Z,4.40
2022-08-17T16:29:13.356Z,3.97
2022-08-17T16:31:41.338Z,3.67
2022-08-17T16:34:18.071Z,3.20
2022-08-17T16:36:55.490Z,4.00
2022-08-17T16:39:29.598Z,3.50
2022-08-17T16:41:57.425Z,3.73
2022-08-17T16:44:28.858Z,4.07
2022-08-17T16:46:57.322Z,3.60
2022-08-17T16:49:37.481Z,3.40
2022-08-17T16:52:10.625Z,3.40
2022-08-17T16:54:44.257Z,3.77
2022-08-17T16:57:13.654Z,4.67
2022-08-17T16:59:45.179Z,3.60
2022-08-17T17:02:23.375Z,4.17
2022-08-17T17:05:51.523Z,3.90
2022-08-17T17:08:48.376Z,3.77
2022-08-17T17:11:33.602Z,3.93
2022-08-17T17:14:10.819Z,3.80
2022-08-17T17:17:14.695Z,3.80
2022-08-17T17:20:11.564Z,3.80
2022-08-17T17:23:17.339Z,4.30
2022-08-17T17:26:02.392Z,4.43
2022-08-17T17:28:39.010Z,4.37
2022-08-17T17:31:20.987Z,3.97
2022-08-17T17:34:00.435Z,4.30
2022-08-17T17:36:49.875Z,3.80
2022-08-17T17:39:32.181Z,3.90
2022-08-17T17:42:07.416Z,4.03
2022-08-17T17:44:44.470Z,4.10
2022-08-17T17:47:13.231Z,3.83
2022-08-17T17:49:44.495Z,4.10
2022-08-17T17:52:14.527Z,4.30
2022-08-17T17:55:35.302Z,4.20
2022-08-17T17:58:34.904Z,4.40
2022-08-17T18:01:30.689Z,4.57
2022-08-17T18:04:28.431Z,5.10
2022-08-17T18:07:04.339Z,4.83
2022-08-17T18:10:49.126Z,4.40
2022-08-17T18:13:50.510Z,5.63
2022-08-17T18:16:19.126Z,5.87
2022-08-17T18:18:52.344Z,5.10
2022-08-17T18:21:32.984Z,5.27
2022-08-17T18:24:04.946Z,5.37
2022-08-17T18:26:44.954Z,5.77
2022-08-17T18:29:27.522Z,5.07
2022-08-17T18:32:38.589Z,5.80
2022-08-17T18:35:10.779Z,5.57
2022-08-17T18:37:50.201Z,5.30
2022-08-17T18:40:17.170Z,5.40
2022-08-17T18:43:00.451Z,4.77
2022-08-17T18:45:49.124Z,5.53
2022-08-17T18:48:38.145Z,5.50
2022-08-17T18:51:40.946Z,6.10
2022-08-17T18:54:22.900Z,5.90
2022-08-17T18:56:55.199Z,4.90
2022-08-17T18:59:42.237Z,5.40
2022-08-17T19:05:26.225Z,5.47
2022-08-17T19:07:53.444Z,4.50
2022-08-17T19:10:46.184Z,5.33
2022-08-17T19:13:25.511Z,5.60
2022-08-17T19:16:31.892Z,5.30
2022-08-17T19:19:17.726Z,4.80
2022-08-17T19:22:00.775Z,4.93
2022-08-17T19:24:31.547Z,5.17
2022-08-17T19:27:25.463Z,5.50
2022-08-17T19:30:10.726Z,5.40
2022-08-17T19:32:38.136Z,5.33
2022-08-17T19:35:12.394Z,5.60
2022-08-17T19:38:12.938Z,4.87
2022-08-17T19:40:58.505Z,5.87
2022-08-17T19:43:52.835Z,4.77
2022-08-17T19:46:50.094Z,5.13
2022-08-17T19:49:46.586Z,4.97
2022-08-17T19:53:09.624Z,4.73
2022-08-17T19:56:13.579Z,4.47
2022-08-17T19:59:16.154Z,4.97
2022-08-17T20:01:51.566Z,5.00
2022-08-17T20:04:32.265Z,4.90
2022-08-17T20:07:13.347Z,5.23
2022-08-17T20:09:51.571Z,4.83
2022-08-17T20:12:25.702Z,5.50
2022-08-17T20:15:35.135Z,4.60
2022-08-17T20:18:12.302Z,4.57
2022-08-17T20:21:19.946Z,4.87
2022-08-17T20:24:18.349Z,5.80
2022-08-17T20:26:59.470Z,4.50
2022-08-17T20:29:39.836Z,4.63
2022-08-17T20:32:25.050Z,6.10
2022-08-17T20:35:08.358Z,5.30
2022-08-17T20:37:43.041Z,8.20
2022-08-17T20:40:09.796Z,8.30
2022-08-17T20:42:37.451Z,8.87
2022-08-17T20:45:25.990Z,9.87
2022-08-17T20:48:27.245Z,8.43
2022-08-17T20:50:55.947Z,9.27
2022-08-17T20:53:54.862Z,9.47
2022-08-17T20:56:43.301Z,7.90
2022-08-17T20:59:31.576Z,7.33
2022-08-17T21:02:17.723Z,8.70
2022-08-17T21:04:54.307Z,6.67
2022-08-17T21:07:29.092Z,7.60
2022-08-17T21:10:25.399Z,7.10
2022-08-17T21:14:01.724Z,7.23
2022-08-17T21:17:01.236Z,6.47
2022-08-17T21:19:49.016Z,6.87
2022-08-17T21:22:42.082Z,7.20
2022-08-17T21:25:32.417Z,6.60
2022-08-17T21:28:14.681Z,6.67
2022-08-17T21:31:08.407Z,7.33
2022-08-17T21:33:40.237Z,7.30
2022-08-17T21:36:12.689Z,6.57
2022-08-17T21:38:48.717Z,7.40
2022-08-17T21:41:33.742Z,7.60
2022-08-17T21:44:18.239Z,7.87
2022-08-17T21:46:49.329Z,7.20
2022-08-17T21:49:24.863Z,7.83
2022-08-17T21:51:55.830Z,8.23
2022-08-17T21:54:38.586Z,7.80
2022-08-17T21:57:16.556Z,7.10
2022-08-17T21:59:44.555Z,6.33
2022-08-17T22:02:24.702Z,6.90
2022-08-17T22:05:02.487Z,7.57
2022-08-17T22:07:42.467Z,7.70
2022-08-17T22:10:27.371Z,7.80
2022-08-17T22:13:21.528Z,6.60
2022-08-17T22:16:15.640Z,7.43
2022-08-17T22:18:57.942Z,7.10
2022-08-17T22:21:25.464Z,7.00
2022-08-17T22:24:15.226Z,7.10
2022-08-17T22:27:10.852Z,7.20
2022-08-17T22:29:46.577Z,6.53
2022-08-17T22:32:37.430Z,6.27
2022-08-17T22:35:42.311Z,7.13
2022-08-17T22:38:21.030Z,6.30
2022-08-17T22:40:57.401Z,6.30
2022-08-17T22:43:28.551Z,7.07
2022-08-17T22:46:00.201Z,6.83
2022-08-17T22:48:31.087Z,6.07
2022-08-17T22:51:17.330Z,6.43
2022-08-17T22:54:12.809Z,5.83
2022-08-17T22:57:31.068Z,6.07
2022-08-17T23:00:00.508Z,6.23
2022-08-17T23:02:34.830Z,6.70
2022-08-17T23:05:12.721Z,5.60
2022-08-17T23:07:40.734Z,6.13
2022-08-17T23:10:12.657Z,6.27
2022-08-17T23:12:39.776Z,5.67
2022-08-17T23:15:16.043Z,6.07
2022-08-17T23:17:45.247Z,6.73
2022-08-17T23:20:15.890Z,5.53
2022-08-17T23:22:51.834Z,6.60
2022-08-17T23:25:29.100Z,6.80
2022-08-17T23:28:01.417Z,6.60
2022-08-17T23:30:31.588Z,7.07
2022-08-17T23:33:07.954Z,7.33
2022-08-17T23:35:39.000Z,5.60
2022-08-17T23:38:07.434Z,6.50
2022-08-17T23:40:34.443Z,6.77
2022-08-17T23:43:01.294Z,6.63
2022-08-17T23:45:32.788Z,6.50
2022-08-17T23:48:00.234Z,5.73
2022-08-17T23:50:30.037Z,6.00
2022-08-17T23:52:58.002Z,6.07
2022-08-17T23:55:24.817Z,6.37
2022-08-17T23:57:51.791Z,5.93
